Time;durP1;ratioP1;P1;durP2;ratioP2;P2;SDS_P1;SDS_P2;PMS_P1;PMS_P2;Temp;Humidity;BMP_temperature;BMP_pressure;BME280_temperature;BME280_humidity;BME280_pressure;Samples;Min_cycle;Max_cycle;Signal;HPM_P1;HPM_P2
2022/05/29 00:00:53;;;;;;;10.17;6.13;;;24.90;43.40;;;;;;4884265;28;91032;-73
2022/05/29 00:03:21;;;;;;;9.77;6.57;;;24.90;43.40;;;;;;4884312;28;89532;-73
2022/05/29 00:05:50;;;;;;;7.17;5.60;;;24.90;43.40;;;;;;4865757;28;88906;-73
2022/05/29 00:08:21;;;;;;;7.53;5.57;;;24.90;43.40;;;;;;4865755;29;88538;-73
2022/05/29 00:10:49;;;;;;;9.70;6.00;;;24.90;43.40;;;;;;4865588;29;90112;-73
2022/05/29 00:13:18;;;;;;;7.50;5.90;;;24.90;44.00;;;;;;4865807;29;89783;-73
2022/05/29 00:15:46;;;;;;;6.67;5.27;;;24.90;43.40;;;;;;4865163;28;88873;-73
2022/05/29 00:18:14;;;;;;;7.80;5.43;;;24.90;43.40;;;;;;4865484;28;88622;-73
2022/05/29 00:20:50;;;;;;;10.03;5.20;;;24.90;43.40;;;;;;4866969;28;90696;-72
2022/05/29 00:23:18;;;;;;;6.10;4.40;;;24.80;43.30;;;;;;4871821;28;90132;-72
2022/05/29 00:25:48;;;;;;;9.93;5.53;;;24.80;43.30;;;;;;4865587;29;88429;-73
2022/05/29 00:28:28;;;;;;;6.30;4.77;;;24.80;43.30;;;;;;4866457;29;88525;-73
2022/05/29 00:30:56;;;;;;;6.90;4.47;;;24.80;43.30;;;;;;4865192;29;89413;-73
2022/05/29 00:33:24;;;;;;;6.47;4.17;;;24.80;43.30;;;;;;4864639;29;90589;-73
2022/05/29 00:35:53;;;;;;;5.87;4.13;;;24.80;43.30;;;;;;4864448;29;88887;-73
2022/05/29 00:38:21;;;;;;;7.00;4.60;;;24.80;43.30;;;;;;4880169;28;88478;-73
2022/05/29 00:40:52;;;;;;;7.70;4.13;;;24.80;43.30;;;;;;4883630;28;90654;-73
2022/05/29 00:43:21;;;;;;;5.70;3.67;;;24.80;43.30;;;;;;4883954;28;89515;-73
2022/05/29 00:45:50;;;;;;;5.07;3.57;;;24.80;43.30;;;;;;4884281;28;89044;-73
2022/05/29 00:48:19;;;;;;;5.97;4.07;;;24.80;43.40;;;;;;4883734;28;88551;-72
2022/05/29 00:50:48;;;;;;;6.93;3.50;;;24.80;43.40;;;;;;4883439;28;90905;-72
2022/05/29 00:53:16;;;;;;;8.43;3.83;;;24.70;43.30;;;;;;4879812;28;88943;-73
2022/05/29 00:55:49;;;;;;;7.07;3.90;;;24.70;43.30;;;;;;4875847;28;88732;-73
2022/05/29 00:58:17;;;;;;;6.90;3.03;;;24.70;43.30;;;;;;4882925;28;88773;-73
2022/05/29 01:00:48;;;;;;;4.43;3.30;;;24.70;43.30;;;;;;4883339;28;90644;-73
2022/05/29 01:03:16;;;;;;;4.23;3.37;;;24.70;43.30;;;;;;4884020;28;90414;-73
2022/05/29 01:05:44;;;;;;;5.67;3.63;;;24.70;43.30;;;;;;4883381;28;88552;-72
2022/05/29 01:08:14;;;;;;;9.67;3.40;;;24.60;43.20;;;;;;4883749;28;88464;-73
2022/05/29 01:11:07;;;;;;;5.03;2.90;;;24.70;43.30;;;;;;4881684;28;90340;-72
2022/05/29 01:13:42;;;;;;;3.80;2.70;;;24.60;43.30;;;;;;4829634;29;91414;-73
2022/05/29 01:16:16;;;;;;;3.57;2.70;;;24.70;43.40;;;;;;4845450;29;88405;-73
2022/05/29 01:18:48;;;;;;;5.53;2.53;;;24.60;43.20;;;;;;4845765;29;88454;-73
2022/05/29 01:21:51;;;;;;;5.43;2.50;;;24.60;43.20;;;;;;4845668;29;89403;-73
2022/05/29 01:24:46;;;;;;;2.87;2.37;;;24.60;43.30;;;;;;4845684;29;90318;-73
2022/05/29 01:27:36;;;;;;;3.03;2.03;;;24.60;43.30;;;;;;4860496;28;88902;-72
2022/05/29 01:30:08;;;;;;;5.17;2.37;;;24.60;43.30;;;;;;4864247;29;88567;-72
2022/05/29 01:32:38;;;;;;;5.80;2.43;;;24.60;43.30;;;;;;4863744;28;91856;-73
2022/05/29 01:35:10;;;;;;;2.80;2.13;;;24.60;43.30;;;;;;4863791;28;90037;-72
2022/05/29 01:37:42;;;;;;;3.23;1.90;;;24.60;43.20;;;;;;4863864;28;89049;-72
2022/05/29 01:40:11;;;;;;;2.37;1.93;;;24.60;43.20;;;;;;4863817;29;88566;-72
2022/05/29 01:42:42;;;;;;;3.40;1.50;;;24.50;43.20;;;;;;4864525;28;94031;-72
2022/05/29 01:45:15;;;;;;;4.40;1.90;;;24.50;43.20;;;;;;4863779;28;89110;-72
2022/05/29 01:47:45;;;;;;;1.93;1.60;;;24.50;43.20;;;;;;4863595;29;92367;-72
2022/05/29 01:50:23;;;;;;;2.43;1.70;;;24.50;43.20;;;;;;4863719;28;88558;-72
2022/05/29 01:52:55;;;;;;;2.63;1.90;;;24.50;43.20;;;;;;4863701;29;93278;-72
2022/05/29 01:55:28;;;;;;;4.20;1.77;;;24.50;43.20;;;;;;4863718;29;90167;-73
2022/05/29 01:57:59;;;;;;;2.03;1.50;;;24.50;43.20;;;;;;4864066;29;89116;-72
2022/05/29 02:00:31;;;;;;;3.87;1.43;;;24.50;43.20;;;;;;4877171;28;88598;-73
2022/05/29 02:03:03;;;;;;;3.60;2.03;;;24.50;43.20;;;;;;4882766;28;90740;-72
2022/05/29 02:05:34;;;;;;;2.13;1.33;;;24.50;43.20;;;;;;4882493;28;91194;-72
2022/05/29 02:08:05;;;;;;;2.07;1.17;;;24.50;43.20;;;;;;4882948;28;88291;-72
2022/05/29 02:10:37;;;;;;;1.67;1.20;;;24.50;43.30;;;;;;4876267;28;88422;-72
2022/05/29 02:13:08;;;;;;;2.07;1.50;;;24.40;43.10;;;;;;4864125;29;93313;-72
2022/05/29 02:15:46;;;;;;;2.50;1.30;;;24.40;43.20;;;;;;4863842;29;88829;-72
2022/05/29 02:18:28;;;;;;;1.13;1.03;;;24.40;43.20;;;;;;4863807;29;88183;-72
2022/05/29 02:20:59;;;;;;;1.93;1.40;;;24.40;43.10;;;;;;4883075;28;88983;-72
2022/05/29 02:23:29;;;;;;;3.60;1.33;;;24.40;43.10;;;;;;4885134;28;90175;-72
2022/05/29 02:25:57;;;;;;;1.43;1.20;;;24.40;43.10;;;;;;4885359;28;89355;-72
2022/05/29 02:28:27;;;;;;;1.37;1.27;;;24.40;43.10;;;;;;4885619;28;88323;-72
2022/05/29 02:31:01;;;;;;;2.07;1.17;;;24.40;43.10;;;;;;4886145;28;88489;-72
2022/05/29 02:33:32;;;;;;;1.63;1.10;;;24.40;43.10;;;;;;4880637;28;89194;-72
2022/05/29 02:38:49;;;;;;;1.03;1.00;;;24.40;43.10;;;;;;4866487;28;88855;-72
2022/05/29 02:41:20;;;;;;;1.63;1.10;;;24.40;43.00;;;;;;4866981;29;88607;-72
2022/05/29 02:43:50;;;;;;;0.77;0.77;;;24.40;43.10;;;;;;4867089;29;93398;-72
2022/05/29 02:46:23;;;;;;;1.50;1.30;;;24.40;43.00;;;;;;4866937;29;90024;-72
2022/05/29 02:48:55;;;;;;;1.17;1.10;;;24.30;42.90;;;;;;4866340;28;89375;-72
2022/05/29 02:51:25;;;;;;;1.90;1.00;;;24.30;43.60;;;;;;4884902;28;88373;-72
2022/05/29 02:53:54;;;;;;;0.83;0.83;;;24.40;43.00;;;;;;4885564;28;89767;-73
2022/05/29 02:56:22;;;;;;;2.10;0.87;;;24.30;42.90;;;;;;4885482;28;89486;-72
2022/05/29 02:58:51;;;;;;;4.30;1.10;;;24.30;42.90;;;;;;4877190;28;88875;-73
2022/05/29 03:01:25;;;;;;;2.03;1.00;;;24.30;42.90;;;;;;4865799;29;88436;-72
2022/05/29 03:04:07;;;;;;;2.80;1.10;;;24.30;42.90;;;;;;4866093;29;89517;-73
2022/05/29 03:06:50;;;;;;;0.50;0.50;;;24.20;42.90;;;;;;4873019;28;93286;-72
2022/05/29 03:09:30;;;;;;;0.47;0.47;;;24.30;43.00;;;;;;4871102;28;91122;-72
2022/05/29 03:11:58;;;;;;;1.20;1.07;;;24.30;43.00;;;;;;4866052;29;88552;-72
2022/05/29 03:14:30;;;;;;;2.63;0.93;;;24.20;42.90;;;;;;4863172;28;90421;-72
2022/05/29 03:17:11;;;;;;;0.57;0.50;;;24.20;42.90;;;;;;4866283;29;88975;-72
2022/05/29 03:19:45;;;;;;;0.63;0.60;;;24.20;43.00;;;;;;4866041;28;88548;-75
2022/05/29 03:22:16;;;;;;;1.07;0.57;;;24.20;43.00;;;;;;4865785;29;89941;-74
2022/05/29 03:24:46;;;;;;;0.83;0.83;;;24.20;43.00;;;;;;4865752;28;89631;-75
2022/05/29 03:27:16;;;;;;;0.97;0.60;;;24.20;43.00;;;;;;4865058;28;89106;-74
2022/05/29 03:29:46;;;;;;;2.90;1.47;;;24.20;43.10;;;;;;4865660;29;91985;-75
2022/05/29 03:32:15;;;;;;;4.30;0.90;;;24.20;43.10;;;;;;4867380;28;88990;-74
2022/05/29 03:34:43;;;;;;;1.87;1.00;;;24.20;43.20;;;;;;4884064;28;90240;-73
2022/05/29 03:37:12;;;;;;;0.73;0.73;;;24.20;43.20;;;;;;4847146;29;88820;-74
2022/05/29 03:39:40;;;;;;;4.30;0.93;;;24.20;43.30;;;;;;4846193;29;91993;-75
2022/05/29 03:42:08;;;;;;;1.83;0.73;;;24.20;43.30;;;;;;4863306;29;88454;-75
2022/05/29 03:44:36;;;;;;;1.13;0.63;;;24.20;43.30;;;;;;4865274;29;93127;-75
2022/05/29 03:47:05;;;;;;;0.80;0.80;;;24.20;43.30;;;;;;4865926;29;92851;-75
2022/05/29 03:49:34;;;;;;;0.93;0.70;;;24.20;43.40;;;;;;4865985;28;88491;-74
2022/05/29 03:52:02;;;;;;;3.93;0.70;;;24.10;43.40;;;;;;4864746;29;88546;-74
2022/05/29 03:54:30;;;;;;;3.70;0.77;;;24.20;43.40;;;;;;4864663;28;91162;-74
2022/05/29 03:56:58;;;;;;;0.50;0.50;;;24.20;43.40;;;;;;4878417;28;89657;-74
2022/05/29 03:59:26;;;;;;;7.07;1.10;;;24.10;43.40;;;;;;4864936;29;89035;-71
2022/05/29 04:01:54;;;;;;;1.63;0.80;;;24.20;43.50;;;;;;4864425;29;88439;-71
2022/05/29 04:04:22;;;;;;;0.50;0.50;;;24.20;43.40;;;;;;4865355;29;90313;-71
2022/05/29 04:06:51;;;;;;;1.97;1.00;;;24.10;43.50;;;;;;4865939;28;88848;-71
2022/05/29 04:12:07;;;;;;;3.73;1.03;;;24.10;43.40;;;;;;4864717;28;88480;-71
2022/05/29 04:14:37;;;;;;;2.20;0.60;;;24.10;43.40;;;;;;4863849;29;89868;-71
2022/05/29 04:17:07;;;;;;;0.77;0.70;;;24.10;43.50;;;;;;4865446;29;93329;-71
2022/05/29 04:19:37;;;;;;;0.83;0.73;;;24.10;43.50;;;;;;4864883;28;89226;-74
2022/05/29 04:22:08;;;;;;;1.93;0.93;;;24.10;43.50;;;;;;4867474;28;88629;-73
2022/05/29 04:24:37;;;;;;;3.77;1.10;;;24.10;43.50;;;;;;4865524;29;89360;-71
2022/05/29 04:27:06;;;;;;;1.40;0.80;;;24.10;43.50;;;;;;4865570;29;89953;-73
2022/05/29 04:29:34;;;;;;;2.03;0.80;;;24.10;43.50;;;;;;4865774;29;88915;-73
2022/05/29 04:34:53;;;;;;;2.37;1.00;;;24.10;43.50;;;;;;4864474;29;88643;-73
2022/05/29 04:37:23;;;;;;;1.40;0.90;;;24.00;43.40;;;;;;4865370;29;88936;-72
2022/05/29 04:39:51;;;;;;;1.27;0.70;;;24.00;43.40;;;;;;4882298;28;89726;-72
2022/05/29 04:42:19;;;;;;;0.80;0.60;;;24.00;43.40;;;;;;4876799;28;88416;-72
2022/05/29 04:44:47;;;;;;;1.60;1.20;;;24.00;43.40;;;;;;4863414;29;90147;-72
2022/05/29 04:47:15;;;;;;;0.93;0.70;;;24.00;43.40;;;;;;4862196;28;89098;-73
2022/05/29 04:49:43;;;;;;;2.73;0.87;;;24.00;43.40;;;;;;4863362;28;90976;-72
2022/05/29 04:52:11;;;;;;;0.90;0.90;;;24.00;43.40;;;;;;4856350;28;88659;-72
2022/05/29 04:54:41;;;;;;;1.77;1.10;;;24.00;43.40;;;;;;4854980;29;89520;-72
2022/05/29 04:57:09;;;;;;;2.50;1.03;;;24.00;43.40;;;;;;4847720;29;90057;-73
2022/05/29 04:59:37;;;;;;;1.77;1.13;;;24.00;43.40;;;;;;4882133;28;88855;-72
2022/05/29 05:02:05;;;;;;;1.70;0.97;;;24.00;43.40;;;;;;4877702;28;88345;-72
2022/05/29 05:04:33;;;;;;;2.27;0.80;;;24.00;43.40;;;;;;4863610;29;90777;-72
2022/05/29 05:07:01;;;;;;;2.40;1.13;;;24.00;43.40;;;;;;4863648;28;89218;-72
2022/05/29 05:09:30;;;;;;;0.93;0.93;;;24.00;43.40;;;;;;4875589;28;89047;-72
2022/05/29 05:11:59;;;;;;;1.00;0.70;;;24.00;44.10;;;;;;4878442;28;88689;-72
2022/05/29 05:14:28;;;;;;;3.20;0.90;;;24.00;43.40;;;;;;4864640;29;90751;-72
2022/05/29 05:16:56;;;;;;;1.07;0.70;;;24.00;43.40;;;;;;4863548;29;88824;-72
2022/05/29 05:19:24;;;;;;;1.17;0.90;;;24.00;43.40;;;;;;4881142;28;89038;-72
2022/05/29 05:21:52;;;;;;;2.37;0.53;;;24.00;44.10;;;;;;4878759;28;88575;-72
2022/05/29 05:24:21;;;;;;;0.80;0.80;;;24.00;43.30;;;;;;4863704;29;90214;-72
2022/05/29 05:26:49;;;;;;;0.80;0.60;;;24.00;43.30;;;;;;4878958;28;88667;-72
2022/05/29 05:29:19;;;;;;;1.07;0.80;;;24.00;43.30;;;;;;4845250;29;90255;-72
2022/05/29 05:31:47;;;;;;;1.33;0.80;;;24.00;43.30;;;;;;4845726;29;88482;-71
2022/05/29 05:34:15;;;;;;;0.87;0.53;;;24.00;43.30;;;;;;4863896;29;93084;-72
2022/05/29 05:36:43;;;;;;;1.87;0.60;;;24.00;43.30;;;;;;4864211;29;90057;-72
2022/05/29 05:39:11;;;;;;;0.73;0.60;;;24.00;43.30;;;;;;4863912;29;88981;-72
2022/05/29 05:41:39;;;;;;;0.90;0.73;;;24.00;43.30;;;;;;4864507;28;88690;-72
2022/05/29 05:44:07;;;;;;;1.97;0.53;;;24.00;43.30;;;;;;4863791;29;90689;-71
2022/05/29 05:46:36;;;;;;;2.77;1.07;;;24.00;43.30;;;;;;4863789;29;90143;-71
2022/05/29 05:49:04;;;;;;;1.20;0.70;;;24.00;43.30;;;;;;4868006;28;88657;-72
2022/05/29 05:51:32;;;;;;;0.83;0.60;;;24.00;43.30;;;;;;4863825;29;88496;-72
2022/05/29 05:54:00;;;;;;;1.07;0.70;;;24.00;43.30;;;;;;4863216;28;92546;-71
2022/05/29 05:56:28;;;;;;;1.33;0.80;;;23.90;43.30;;;;;;4864957;29;93292;-71
2022/05/29 05:58:56;;;;;;;0.73;0.70;;;23.90;43.30;;;;;;4869925;28;91899;-71
2022/05/29 06:01:25;;;;;;;0.63;0.63;;;23.90;43.30;;;;;;4867178;29;88827;-71
2022/05/29 06:03:59;;;;;;;1.10;0.60;;;23.90;43.30;;;;;;4867312;29;89356;-71
2022/05/29 06:06:27;;;;;;;3.30;0.77;;;23.90;43.30;;;;;;4867029;28;91343;-71
2022/05/29 06:08:56;;;;;;;1.37;0.83;;;23.90;43.30;;;;;;4866854;29;88953;-72
2022/05/29 06:11:26;;;;;;;0.53;0.50;;;23.90;43.30;;;;;;4867072;29;88521;-72
2022/05/29 06:13:54;;;;;;;1.33;0.60;;;23.90;43.30;;;;;;4866862;29;89351;-72
2022/05/29 06:16:22;;;;;;;0.60;0.60;;;23.90;43.30;;;;;;4876824;28;88903;-72
2022/05/29 06:18:50;;;;;;;2.00;1.00;;;23.90;43.30;;;;;;4858375;29;88397;-73
2022/05/29 06:21:19;;;;;;;0.40;0.40;;;23.90;43.30;;;;;;4861966;29;88511;-72
2022/05/29 06:23:48;;;;;;;1.60;0.77;;;23.90;43.30;;;;;;4867007;29;88473;-72
2022/05/29 06:26:16;;;;;;;0.87;0.50;;;23.90;43.30;;;;;;4866532;29;88771;-72
2022/05/29 06:28:44;;;;;;;1.60;0.40;;;23.90;43.30;;;;;;4865551;29;88574;-72
2022/05/29 06:31:12;;;;;;;1.83;0.83;;;23.90;43.30;;;;;;4866161;29;88635;-72
2022/05/29 06:33:41;;;;;;;0.50;0.50;;;23.90;43.20;;;;;;4869193;28;93648;-72
2022/05/29 06:36:11;;;;;;;2.50;0.90;;;23.90;43.20;;;;;;4866336;29;88930;-73
2022/05/29 06:38:40;;;;;;;2.17;0.77;;;23.90;43.20;;;;;;4866965;29;88334;-73
2022/05/29 06:41:09;;;;;;;0.60;0.60;;;23.90;43.20;;;;;;4851247;29;88485;-73
2022/05/29 06:43:37;;;;;;;0.93;0.40;;;24.00;43.20;;;;;;4861553;29;88379;-73
2022/05/29 06:46:06;;;;;;;0.60;0.60;;;24.00;43.20;;;;;;4866115;29;89830;-72
2022/05/29 06:48:35;;;;;;;4.13;0.60;;;24.00;43.20;;;;;;4866654;28;88511;-71
2022/05/29 06:51:06;;;;;;;0.67;0.63;;;24.00;43.20;;;;;;4864319;29;88679;-72
2022/05/29 06:53:34;;;;;;;0.67;0.53;;;24.00;43.20;;;;;;4864176;29;89607;-72
2022/05/29 06:56:04;;;;;;;0.73;0.40;;;24.10;43.20;;;;;;4865714;29;88404;-72
2022/05/29 06:58:32;;;;;;;0.50;0.40;;;24.00;43.20;;;;;;4865304;28;88537;-72
2022/05/29 07:09:21;;;;;;;0.93;0.57;;;24.00;43.30;;;;;;4865838;29;88687;-71
2022/05/29 07:11:52;;;;;;;0.67;0.50;;;24.00;43.30;;;;;;4865158;29;88479;-72
2022/05/29 07:14:21;;;;;;;1.03;0.77;;;24.00;43.30;;;;;;4866230;29;90146;-72
2022/05/29 07:16:49;;;;;;;0.47;0.40;;;24.00;43.30;;;;;;4857384;29;89622;-71
2022/05/29 07:19:20;;;;;;;0.50;0.40;;;24.00;43.40;;;;;;4858824;29;88874;-72
2022/05/29 07:21:48;;;;;;;0.77;0.50;;;24.00;43.30;;;;;;4863185;28;89385;-72
2022/05/29 07:24:16;;;;;;;0.50;0.40;;;24.00;43.30;;;;;;4859141;29;89781;-72
2022/05/29 07:26:49;;;;;;;0.57;0.30;;;24.00;43.30;;;;;;4850447;29;90218;-72
2022/05/29 07:29:18;;;;;;;0.67;0.60;;;23.90;43.30;;;;;;4849482;29;88460;-72
2022/05/29 07:31:46;;;;;;;2.43;0.73;;;23.90;43.30;;;;;;4849181;29;88660;-71
2022/05/29 07:34:14;;;;;;;0.50;0.40;;;23.90;43.30;;;;;;4856349;29;89154;-72
2022/05/29 07:36:42;;;;;;;0.40;0.30;;;24.00;43.30;;;;;;4856515;29;88997;-72
2022/05/29 07:39:11;;;;;;;0.60;0.40;;;24.00;43.30;;;;;;4866034;28;90476;-72
2022/05/29 07:44:27;;;;;;;0.30;0.30;;;23.90;43.30;;;;;;4865352;29;90083;-71
2022/05/29 07:46:55;;;;;;;0.90;0.60;;;23.90;43.30;;;;;;4864570;29;90074;-72
2022/05/29 07:49:23;;;;;;;0.60;0.50;;;23.90;43.30;;;;;;4864269;29;88767;-72
2022/05/29 07:51:51;;;;;;;1.00;0.60;;;23.90;43.40;;;;;;4857706;29;88440;-71
2022/05/29 07:54:20;;;;;;;1.17;0.53;;;23.90;43.40;;;;;;4851541;28;89601;-71
2022/05/29 07:56:49;;;;;;;0.50;0.47;;;23.90;43.40;;;;;;4851730;28;88567;-71
2022/05/29 07:59:18;;;;;;;2.33;0.80;;;23.90;43.40;;;;;;4863799;29;88522;-66
2022/05/29 08:01:48;;;;;;;0.60;0.60;;;23.90;43.40;;;;;;4865526;28;88910;-65
2022/05/29 08:04:16;;;;;;;166.17;44.77;;;23.90;43.50;;;;;;4865129;29;90575;-65
2022/05/29 08:06:44;;;;;;;34.00;12.47;;;24.00;43.70;;;;;;4864519;28;89493;-66
2022/05/29 08:09:12;;;;;;;80.07;25.20;;;24.00;43.80;;;;;;4864191;29;88465;-66
2022/05/29 08:11:40;;;;;;;69.30;25.70;;;24.10;44.10;;;;;;4865527;28;88580;-66
2022/05/29 08:14:09;;;;;;;62.60;25.50;;;24.10;44.20;;;;;;4864373;29;91282;-67
2022/05/29 08:16:38;;;;;;;62.30;23.63;;;24.20;44.30;;;;;;4856807;29;90115;-67
2022/05/29 08:19:08;;;;;;;51.70;20.77;;;24.20;44.30;;;;;;4863470;29;88534;-66
2022/05/29 08:21:36;;;;;;;50.23;20.97;;;24.20;44.50;;;;;;4864800;29;89661;-66
2022/05/29 08:32:46;;;;;;;38.53;14.40;;;24.00;44.60;;;;;;4863779;29;88572;-66
2022/05/29 08:35:16;;;;;;;29.57;13.10;;;24.00;44.70;;;;;;4863687;28;93572;-66
2022/05/29 08:37:47;;;;;;;34.63;12.77;;;24.00;44.70;;;;;;4863656;29;90153;-66
2022/05/29 08:40:15;;;;;;;27.80;11.13;;;24.00;44.80;;;;;;4863526;29;89052;-66
2022/05/29 08:42:43;;;;;;;29.03;10.50;;;24.00;44.80;;;;;;4863687;29;88617;-70
2022/05/29 08:45:14;;;;;;;20.60;10.27;;;24.00;44.80;;;;;;4858792;28;92719;-73
2022/05/29 08:47:45;;;;;;;20.03;8.17;;;24.00;44.80;;;;;;4848980;29;89202;-73
2022/05/29 08:50:20;;;;;;;14.80;5.13;;;24.10;44.80;;;;;;4845854;29;88519;-73
2022/05/29 08:52:53;;;;;;;18.83;6.50;;;24.10;44.60;;;;;;4845858;29;88566;-73
2022/05/29 08:55:23;;;;;;;16.87;6.23;;;24.10;44.60;;;;;;4846084;29;89394;-73
2022/05/29 08:57:59;;;;;;;26.53;7.23;;;24.10;44.50;;;;;;4860941;29;88772;-73
2022/05/29 09:00:31;;;;;;;11.93;5.93;;;24.10;44.50;;;;;;4863149;29;90411;-73
2022/05/29 09:03:20;;;;;;;13.70;6.10;;;24.20;44.60;;;;;;4862915;28;88355;-73
2022/05/29 09:05:51;;;;;;;16.63;5.33;;;24.10;44.50;;;;;;4855802;29;90616;-74
2022/05/29 09:08:20;;;;;;;12.13;5.23;;;24.20;44.60;;;;;;4849087;29;88827;-73
2022/05/29 09:10:50;;;;;;;12.00;4.90;;;24.20;44.50;;;;;;4847917;29;91076;-73
2022/05/29 09:13:21;;;;;;;11.83;5.10;;;24.10;44.40;;;;;;4860669;28;88823;-74
2022/05/29 09:15:51;;;;;;;10.97;4.47;;;24.10;44.40;;;;;;4861583;29;88677;-73
2022/05/29 09:18:21;;;;;;;9.70;3.90;;;24.10;44.40;;;;;;4858940;28;89112;-73
2022/05/29 09:20:52;;;;;;;7.33;3.57;;;24.10;44.30;;;;;;4862366;29;88810;-73
2022/05/29 09:23:22;;;;;;;7.73;2.90;;;24.10;44.30;;;;;;4860755;28;88705;-73
2022/05/29 09:25:51;;;;;;;7.87;3.17;;;24.10;44.30;;;;;;4879815;28;88465;-73
2022/05/29 09:28:24;;;;;;;6.27;3.53;;;24.10;44.20;;;;;;4870678;28;92372;-72
2022/05/29 09:30:53;;;;;;;6.60;3.20;;;24.10;44.20;;;;;;4857267;29;89210;-73
2022/05/29 09:33:24;;;;;;;6.30;2.40;;;24.10;44.20;;;;;;4847892;28;88979;-73
2022/05/29 09:35:56;;;;;;;5.60;2.37;;;24.10;44.20;;;;;;4848055;29;88586;-73
2022/05/29 09:38:27;;;;;;;4.23;2.33;;;24.10;44.10;;;;;;4850939;28;89193;-73
2022/05/29 09:40:57;;;;;;;5.07;2.67;;;24.10;44.10;;;;;;4852383;29;88719;-73
2022/05/29 09:43:29;;;;;;;3.17;2.30;;;24.10;44.10;;;;;;4847693;29;88800;-74
2022/05/29 09:45:59;;;;;;;3.10;2.37;;;24.10;44.00;;;;;;4847599;29;89288;-73
2022/05/29 09:51:18;;;;;;;2.53;1.93;;;24.10;43.90;;;;;;4852761;28;88863;-68
2022/05/29 09:53:52;;;;;;;4.17;2.50;;;24.20;44.00;;;;;;4852620;29;89975;-72
2022/05/29 09:56:29;;;;;;;2.87;1.80;;;24.20;44.00;;;;;;4852614;28;89847;-72
2022/05/29 09:58:59;;;;;;;2.87;2.07;;;24.20;44.00;;;;;;4862013;28;88441;-72
2022/05/29 10:01:32;;;;;;;4.40;2.20;;;24.20;43.90;;;;;;4850363;28;88314;-72
2022/05/29 10:04:01;;;;;;;3.93;2.27;;;24.20;43.90;;;;;;4843824;29;88721;-72
2022/05/29 10:06:33;;;;;;;3.47;2.83;;;24.20;43.90;;;;;;4879551;28;89724;-71
2022/05/29 10:09:10;;;;;;;4.13;2.97;;;24.20;43.90;;;;;;4865682;28;88813;-66
2022/05/29 10:11:38;;;;;;;5.70;3.60;;;24.20;43.90;;;;;;4849445;29;88543;-65
2022/05/29 10:14:31;;;;;;;8.37;5.27;;;24.20;43.90;;;;;;4856530;28;89822;-66
2022/05/29 10:16:59;;;;;;;13.17;5.10;;;24.10;44.00;;;;;;4858877;29;90187;-70
2022/05/29 10:19:35;;;;;;;21.23;6.23;;;24.20;44.10;;;;;;4853400;29;90084;-72
2022/05/29 10:22:11;;;;;;;18.53;8.83;;;24.10;44.10;;;;;;4858053;28;88583;-72
2022/05/29 10:24:40;;;;;;;13.57;7.63;;;24.10;44.20;;;;;;4856855;29;88687;-72
2022/05/29 10:27:12;;;;;;;18.23;9.23;;;24.10;44.20;;;;;;4856583;29;89461;-72
2022/05/29 10:29:40;;;;;;;17.80;9.77;;;24.10;44.30;;;;;;4862937;29;89366;-72
2022/05/29 10:32:11;;;;;;;19.83;11.17;;;24.10;44.40;;;;;;4855002;29;88993;-72
2022/05/29 10:34:39;;;;;;;23.73;12.87;;;24.10;44.50;;;;;;4850387;29;89003;-72
2022/05/29 10:37:27;;;;;;;20.20;12.57;;;24.00;44.40;;;;;;4853947;29;89884;-72
2022/05/29 10:40:11;;;;;;;21.73;12.60;;;24.00;44.50;;;;;;4851339;29;90407;-72
2022/05/29 10:42:41;;;;;;;23.33;13.03;;;24.00;44.60;;;;;;4853083;29;88732;-72
2022/05/29 10:45:10;;;;;;;24.23;13.83;;;24.10;44.60;;;;;;4852940;29;89542;-72
2022/05/29 10:47:41;;;;;;;34.37;15.10;;;24.10;44.70;;;;;;4862895;29;89835;-72
2022/05/29 10:50:12;;;;;;;27.03;14.23;;;24.10;44.70;;;;;;4865405;29;89214;-72
2022/05/29 10:53:02;;;;;;;25.43;15.27;;;24.10;44.70;;;;;;4861080;29;89400;-71
2022/05/29 10:55:36;;;;;;;31.10;16.50;;;24.10;44.80;;;;;;4862393;28;88746;-72
2022/05/29 10:58:27;;;;;;;27.20;15.27;;;24.10;45.10;;;;;;4863190;29;89637;-72
2022/05/29 11:01:02;;;;;;;25.33;15.43;;;24.10;44.80;;;;;;4857906;29;88975;-72
2022/05/29 11:03:50;;;;;;;26.53;14.90;;;24.10;44.90;;;;;;4852380;28;89108;-71
2022/05/29 11:31:28;;;;;;;22.67;13.73;;;24.00;45.30;;;;;;4869836;28;89017;-72
2022/05/29 11:34:15;;;;;;;27.77;15.23;;;24.00;45.30;;;;;;4875553;28;88731;-71
2022/05/29 11:36:50;;;;;;;30.10;14.80;;;24.00;45.30;;;;;;4865218;28;90580;-72
2022/05/29 11:39:30;;;;;;;24.10;13.83;;;24.10;45.50;;;;;;4864373;28;88511;-72
2022/05/29 11:42:01;;;;;;;22.77;14.03;;;24.10;45.50;;;;;;4864480;28;89004;-72
2022/05/29 11:44:31;;;;;;;23.73;13.80;;;24.10;45.50;;;;;;4866342;28;88592;-73
2022/05/29 11:52:49;;;;;;;23.63;13.83;;;24.20;45.70;;;;;;4878971;28;89347;-77
2022/05/29 11:55:18;;;;;;;21.37;13.30;;;24.30;45.70;;;;;;4878324;28;88515;-78
2022/05/29 11:57:49;;;;;;;23.60;13.70;;;24.30;45.70;;;;;;4862793;28;89018;-75
2022/05/29 12:00:25;;;;;;;20.57;13.57;;;24.30;45.70;;;;;;4870269;28;89254;-74
2022/05/29 12:02:57;;;;;;;18.10;13.17;;;24.30;45.80;;;;;;4873699;28;90530;-76
2022/05/29 12:05:28;;;;;;;24.60;13.10;;;24.40;46.60;;;;;;4869802;28;89554;-75
2022/05/29 12:08:00;;;;;;;19.50;12.23;;;24.40;46.00;;;;;;4873060;28;88961;-76
2022/05/29 12:10:30;;;;;;;16.77;11.10;;;24.40;46.00;;;;;;4870787;28;90056;-76
2022/05/29 12:13:02;;;;;;;17.07;10.77;;;24.40;46.00;;;;;;4869827;28;88887;-76
2022/05/29 12:15:30;;;;;;;18.67;10.80;;;24.50;46.10;;;;;;4875798;28;88762;-77
2022/05/29 12:18:03;;;;;;;15.60;10.23;;;24.50;46.10;;;;;;4876797;28;90631;-75
2022/05/29 12:20:37;;;;;;;17.23;10.73;;;24.50;46.10;;;;;;4866067;28;90271;-75
2022/05/29 12:23:07;;;;;;;16.17;10.40;;;24.50;46.10;;;;;;4863969;28;88739;-75
2022/05/29 12:25:36;;;;;;;16.43;9.00;;;24.50;46.10;;;;;;4880920;28;88950;-75
2022/05/29 12:28:08;;;;;;;18.97;9.33;;;24.60;46.10;;;;;;4874539;28;90565;-76
2022/05/29 12:30:37;;;;;;;17.17;8.90;;;24.50;46.10;;;;;;4866472;28;90158;-76
2022/05/29 12:33:12;;;;;;;15.53;9.10;;;24.60;46.20;;;;;;4864368;28;88441;-76
2022/05/29 12:35:43;;;;;;;12.93;7.67;;;24.50;46.20;;;;;;4865771;28;88986;-75
2022/05/29 12:38:18;;;;;;;15.17;8.00;;;24.50;46.20;;;;;;4864662;29;90306;-77
2022/05/29 12:41:05;;;;;;;14.80;8.03;;;24.50;46.20;;;;;;4863281;28;89278;-76
2022/05/29 12:43:59;;;;;;;14.97;7.83;;;24.50;46.30;;;;;;4869015;28;90591;-76
2022/05/29 12:46:48;;;;;;;16.73;8.47;;;24.50;46.30;;;;;;4863655;28;88805;-75
2022/05/29 12:49:41;;;;;;;11.70;8.23;;;24.50;46.30;;;;;;4864561;28;90668;-75
2022/05/29 12:52:14;;;;;;;12.27;7.17;;;24.50;46.30;;;;;;4861837;28;90063;-75
2022/05/29 12:55:08;;;;;;;16.83;8.33;;;24.60;46.30;;;;;;4866730;28;88566;-74
2022/05/29 12:57:53;;;;;;;13.63;8.83;;;24.60;46.20;;;;;;4874954;28;88711;-75
2022/05/29 13:00:44;;;;;;;17.93;7.50;;;24.60;46.20;;;;;;4870111;28;90786;-75
2022/05/29 13:04:00;;;;;;;15.20;6.83;;;24.50;46.20;;;;;;4856738;28;88800;-75
2022/05/29 13:07:16;;;;;;;12.60;7.47;;;24.60;46.20;;;;;;4862769;28;92531;-75
2022/05/29 13:10:14;;;;;;;11.43;6.47;;;24.60;46.10;;;;;;4856902;28;88642;-74
2022/05/29 13:12:45;;;;;;;18.13;7.67;;;24.50;46.00;;;;;;4875170;28;89185;-75
2022/05/29 13:15:23;;;;;;;14.07;8.10;;;24.60;46.00;;;;;;4862240;28;90075;-75
2022/05/29 13:17:59;;;;;;;12.97;8.10;;;24.50;45.90;;;;;;4862027;28;88639;-75
2022/05/29 13:20:27;;;;;;;13.60;7.87;;;24.50;45.80;;;;;;4862816;28;88564;-75
2022/05/29 13:23:00;;;;;;;11.23;6.80;;;24.60;45.90;;;;;;4866311;28;90749;-74
2022/05/29 13:25:31;;;;;;;14.53;7.40;;;24.60;45.90;;;;;;4864288;28;88810;-75
2022/05/29 13:28:00;;;;;;;13.20;8.07;;;24.60;45.80;;;;;;4867632;28;88883;-75
2022/05/29 13:30:56;;;;;;;12.00;7.30;;;24.60;45.80;;;;;;4861873;28;88708;-75
2022/05/29 13:33:51;;;;;;;13.93;7.27;;;24.60;45.70;;;;;;4868651;28;91945;-75
2022/05/29 13:37:05;;;;;;;18.37;7.10;;;24.60;45.60;;;;;;4866299;28;88475;-76
2022/05/29 13:40:00;;;;;;;11.10;6.23;;;24.60;45.50;;;;;;4870824;28;88466;-75
2022/05/29 13:42:43;;;;;;;11.40;6.23;;;24.60;45.30;;;;;;4865689;28;88482;-75
2022/05/29 13:45:55;;;;;;;11.00;5.93;;;24.60;45.20;;;;;;4865984;28;91658;-75
2022/05/29 13:48:25;;;;;;;8.83;5.73;;;24.60;45.20;;;;;;4863228;28;90232;-75
2022/05/29 13:51:03;;;;;;;8.70;5.67;;;24.60;45.10;;;;;;4867189;28;91896;-75
2022/05/29 13:53:43;;;;;;;8.73;5.57;;;24.60;45.10;;;;;;4862205;28;88624;-75
2022/05/29 13:56:19;;;;;;;11.20;5.17;;;24.60;45.10;;;;;;4862540;28;90564;-75
2022/05/29 14:05:46;;;;;;;8.20;5.07;;;24.60;44.90;;;;;;4872343;28;88495;-75
2022/05/29 14:08:48;;;;;;;6.73;4.47;;;24.60;44.70;;;;;;4860906;28;88895;-75
2022/05/29 14:11:17;;;;;;;8.87;4.97;;;24.60;44.70;;;;;;4833495;28;89250;-75
2022/05/29 14:13:47;;;;;;;8.07;4.23;;;24.60;44.70;;;;;;4862489;28;88596;-75
2022/05/29 14:16:38;;;;;;;8.30;4.47;;;24.60;44.70;;;;;;4864275;28;88620;-75
2022/05/29 14:19:14;;;;;;;6.50;4.20;;;24.60;44.60;;;;;;4866417;28;92573;-75